FlightSource - Aviation Photo Database

World Wide Airport Lookup


Search by ICAO
Or
Search by City

FlightSource.ca - Aviation Photo Database - Sligo Airport Information
Airport Identification
Name: Sligo Airport
ICAO: EISG
IATA: SXL
Airport Location
City: Sligo
Region: SO
Country: Ireland
Continent: Europe
Latitude: 54.2802
Longitude: -8.59921
Airport Information
Type: Medium Airport
Elevation: 11 Feet ASL
Flight Status: EISG
More Info: EISG
Airport Weather    
Metar: EISG 251530Z 12011KT 090V150 CAVOK 08/M03 Q1024
TAF:


Advertisement